Plaistow, New Hampshire
Current Conditions -  °F | °C
As of 7:54 AM on Wednesday 26 Nov 2014 (Local Time) from KLWM Reporting Station
Overcast Overcast  
Wind Chill: 43°   Ceiling: 10000
Heat Index: 43°   Visibility: 10mi
Dew Point: 28°   Wind: 3mph
Humidity: 56%   Direction: 330°NNW
Pressure: 30.19"   Gusts: NA
Location:  42.84°N, 71.09°W
Report Text: KLWM 261254Z 33003KT 10SM OVC100 06/M02 A3019 RMK AO2 SLP224 T00611022
Loading
Personal Weather Stations






























Interactive Weather Map New forecast layout! Learn more

10-Day Weather Forecast

Advertisements
Track Severe Weather on mobile